CST,Max TemperatureF,Mean TemperatureF,Min TemperatureF,Max Dew PointF,MeanDew PointF,Min DewpointF,Max Humidity, Mean Humidity, Min Humidity, Max Sea Level PressureIn, Mean Sea Level PressureIn, Min Sea Level PressureIn, Max VisibilityMiles, Mean VisibilityMiles, Min VisibilityMiles, Max Wind SpeedMPH, Mean Wind SpeedMPH, Max Gust SpeedMPH,PrecipitationIn, CloudCover, Events, WindDirDegrees
2013-11-1,54,48,43,46,43,40,96,85,69,29.83,29.69,29.55,10,9,5,18,8,22,0.00,5,,258
2013-11-2,54,44,32,43,37,31,94,73,44,30.19,30.03,29.83,10,10,10,18,11,26,0.00,3,Rain,299
2013-11-3,58,44,29,38,33,29,96,69,37,30.30,30.22,30.13,10,10,10,15,4,21,0.00,0,,142
2013-11-4,58,52,46,45,41,36,71,63,51,30.19,30.14,30.08,10,10,5,21,11,26,0.00,4,,164
2013-11-5,56,54,52,56,52,45,99,91,69,30.25,30.13,29.94,10,7,1,17,10,24,0.00,8,Rain,167
2013-11-6,59,46,32,59,43,30,99,91,66,30.28,30.06,29.85,10,9,3,24,14,29,0.00,5,Rain-Thunderstorm,272
2013-11-7,50,40,29,39,31,27,94,79,50,30.34,30.31,30.28,10,10,10,21,9,25,0.00,1,,271
2013-11-8,52,40,27,35,32,26,94,68,48,30.34,30.19,29.97,10,10,7,20,8,28,0.00,0,,182
2013-11-9,63,52,40,40,37,34,79,56,36,30.26,30.06,29.95,10,10,10,25,16,32,0.00,0,,260
2013-11-10,52,42,32,34,31,29,88,70,41,30.45,30.35,30.26,10,10,7,12,7,,0.00,1,,266
2013-11-11,54,40,27,41,33,22,97,70,52,30.60,30.29,30.14,10,9,0,23,10,30,0.00,7,Snow,303
2013-11-12,32,25,18,22,18,14,89,76,55,30.81,30.73,30.61,10,10,10,13,10,17,0.00,0,,314
2013-11-13,46,32,18,21,16,13,89,55,26,30.68,30.46,30.22,10,10,10,21,8,24,0.00,0,,208
2013-11-14,54,44,35,26,22,18,52,42,30,30.21,30.07,29.98,10,10,10,20,14,29,0.00,0,,214
2013-11-15,52,44,37,38,32,23,82,61,44,30.02,29.96,29.89,10,10,10,13,9,,0.00,3,,186
2013-11-16,62,53,44,59,52,39,97,86,75,29.88,29.70,29.56,10,10,5,25,14,34,0.00,6,Rain-Thunderstorm,172
2013-11-17,70,58,45,64,52,40,93,81,64,29.95,29.57,29.25,10,10,10,46,15,54,0.01,4,Rain-Thunderstorm,237
2013-11-18,51,40,29,40,32,25,91,73,41,30.32,30.16,29.94,10,10,10,24,12,29,0.00,0,,287
2013-11-19,49,37,25,31,28,23,96,74,43,30.38,30.30,30.22,10,9,5,14,6,,0.00,0,,120
2013-11-20,43,38,34,40,35,30,98,85,67,30.23,30.13,30.03,10,9,5,17,11,22,0.17,7,Rain-Thunderstorm,145
2013-11-21,50,46,43,47,43,40,92,90,85,30.28,30.15,30.07,10,6,2,13,5,17,0.02,8,Rain,22
2013-11-22,43,34,26,41,33,24,100,91,75,30.57,30.47,30.28,10,8,3,20,14,26,0.03,5,Rain,327
2013-11-23,26,20,13,24,16,9,92,73,55,30.78,30.67,30.55,10,10,10,25,12,30,0.00,1,,326
2013-11-24,31,20,10,15,10,6,86,65,36,30.78,30.64,30.38,10,10,10,14,6,18,0.00,0,,202
2013-11-25,37,32,26,29,20,14,81,62,51,30.38,30.23,30.14,10,10,7,18,11,23,0.00,7,Snow,218
2013-11-26,35,28,20,28,20,10,86,69,42,30.29,30.18,30.10,10,10,10,24,10,31,0.00,4,,305
2013-11-27,30,22,14,12,10,7,79,61,38,30.37,30.30,30.24,10,10,10,16,10,21,0.00,0,,298
2013-11-28,41,30,18,20,17,13,83,64,43,30.53,30.31,30.17,10,10,10,15,9,21,0.00,0,,264
2013-11-29,41,27,13,25,18,10,88,70,45,30.62,30.51,30.36,10,10,10,15,4,17,0.00,0,,143
2013-11-30,54,42,31,34,31,25,90,70,46,30.35,30.19,30.08,10,10,10,16,9,18,0.00,0,,207